Time;durP1;ratioP1;P1;durP2;ratioP2;P2;SDS_P1;SDS_P2;PMS_P1;PMS_P2;Temp;Humidity;BMP_temperature;BMP_pressure;BME280_temperature;BME280_humidity;BME280_pressure;Samples;Min_cycle;Max_cycle;Signal;HPM_P1;HPM_P2
2021/03/10 00:00:34;;;;;;;13.58;11.20;;;;;;;-2.33;68.84;98683.49;1748863;82;20988;-73
2021/03/10 00:03:03;;;;;;;14.43;11.40;;;;;;;-2.32;68.93;98687.84;1748794;82;21027;-74
2021/03/10 00:05:31;;;;;;;14.58;11.68;;;;;;;-2.30;68.97;98683.45;1748902;82;21823;-73
2021/03/10 00:08:01;;;;;;;13.90;11.15;;;;;;;-2.29;68.87;98685.17;1748967;82;21357;-73
2021/03/10 00:10:28;;;;;;;14.50;10.68;;;;;;;-2.29;68.82;98682.55;1748914;82;21353;-74
2021/03/10 00:12:59;;;;;;;15.80;11.70;;;;;;;-2.27;68.76;98680.78;1748640;82;20892;-74
2021/03/10 00:15:26;;;;;;;15.78;11.12;;;;;;;-2.27;68.70;98672.89;1748818;82;20976;-73
2021/03/10 00:17:54;;;;;;;13.53;10.00;;;;;;;-2.27;68.69;98670.26;1748544;82;21864;-74
2021/03/10 00:20:23;;;;;;;13.30;10.13;;;;;;;-2.26;68.51;98669.80;1748765;82;21011;-73
2021/03/10 00:22:51;;;;;;;12.28;10.28;;;;;;;-2.27;68.42;98667.63;1748811;81;20981;-75
2021/03/10 00:25:20;;;;;;;17.80;10.98;;;;;;;-2.25;68.46;98668.92;1748880;82;21337;-73
2021/03/10 00:27:49;;;;;;;10.78;9.43;;;;;;;-2.23;68.36;98665.36;1748841;82;20932;-74
2021/03/10 00:30:19;;;;;;;11.50;9.95;;;;;;;-2.23;68.19;98652.66;1748921;82;21369;-74
2021/03/10 00:32:46;;;;;;;11.43;9.90;;;;;;;-2.22;68.12;98659.22;1748637;81;20991;-74
2021/03/10 00:35:18;;;;;;;13.32;9.00;;;;;;;-2.23;67.98;98657.47;1745999;82;20952;-74
2021/03/10 00:37:45;;;;;;;11.18;9.10;;;;;;;-2.22;68.08;98647.38;1748772;82;20995;-74
2021/03/10 00:40:13;;;;;;;10.85;8.65;;;;;;;-2.22;68.01;98654.41;1748869;82;21021;-75
2021/03/10 00:42:44;;;;;;;11.53;8.38;;;;;;;-2.22;67.90;98652.64;1749049;82;21202;-74
2021/03/10 00:45:12;;;;;;;11.15;9.03;;;;;;;-2.23;67.78;98644.31;1748845;82;21012;-74
2021/03/10 00:47:39;;;;;;;13.70;10.30;;;;;;;-2.26;67.74;98644.35;1749090;82;20892;-74
2021/03/10 00:50:09;;;;;;;13.48;9.23;;;;;;;-2.23;67.77;98641.67;1748946;82;20924;-74
2021/03/10 00:52:36;;;;;;;10.82;9.35;;;;;;;-2.25;67.98;98631.63;1749043;82;21039;-74
2021/03/10 00:55:06;;;;;;;12.88;10.60;;;;;;;-2.25;67.94;98636.89;1762167;81;22656;-74
2021/03/10 00:57:36;;;;;;;11.65;9.48;;;;;;;-2.25;68.03;98626.36;1765676;81;20979;-74
2021/03/10 01:00:07;;;;;;;9.38;8.25;;;;;;;-2.25;68.13;98622.42;1765499;81;20986;-74
2021/03/10 01:02:35;;;;;;;8.65;7.75;;;;;;;-2.23;67.79;98618.00;1765585;80;20994;-74
2021/03/10 01:05:07;;;;;;;10.98;8.18;;;;;;;-2.22;67.77;98619.75;1765624;81;20951;-74
2021/03/10 01:07:37;;;;;;;12.43;8.83;;;;;;;-2.22;67.62;98613.16;1734496;81;21384;-73
2021/03/10 01:10:10;;;;;;;9.93;7.50;;;;;;;-2.24;67.48;98612.33;1765931;81;21481;-73
2021/03/10 01:12:37;;;;;;;9.75;7.60;;;;;;;-2.23;67.44;98610.56;1765506;80;20962;-73
2021/03/10 01:15:15;;;;;;;11.25;8.80;;;;;;;-2.25;67.30;98609.27;1765704;81;20931;-74
2021/03/10 01:17:45;;;;;;;9.80;8.13;;;;;;;-2.24;67.34;98604.44;1765620;81;21006;-73
2021/03/10 01:20:18;;;;;;;9.83;8.30;;;;;;;-2.23;67.50;98604.84;1765544;81;21959;-73
2021/03/10 01:22:48;;;;;;;9.40;8.15;;;;;;;-2.20;67.46;98604.80;1765622;81;21440;-74
2021/03/10 01:25:18;;;;;;;8.73;7.37;;;;;;;-2.17;67.34;98605.66;1765697;81;21046;-74
2021/03/10 01:27:45;;;;;;;10.90;7.37;;;;;;;-2.16;67.32;98603.44;1765440;81;20990;-73
2021/03/10 01:30:14;;;;;;;8.70;7.25;;;;;;;-2.14;67.13;98601.22;1765587;81;20979;-73
2021/03/10 01:32:43;;;;;;;10.88;7.35;;;;;;;-2.14;67.01;98592.42;1765634;81;21297;-73
2021/03/10 01:35:12;;;;;;;8.10;6.75;;;;;;;-2.13;67.09;98596.36;1765852;81;20963;-72
2021/03/10 01:37:41;;;;;;;9.75;7.70;;;;;;;-2.15;67.04;98594.66;1765619;81;20954;-74
2021/03/10 01:40:12;;;;;;;10.53;8.30;;;;;;;-2.12;66.99;98589.35;1765503;81;20920;-73
2021/03/10 01:42:41;;;;;;;9.13;8.18;;;;;;;-2.12;67.12;98584.09;1765574;80;21365;-74
2021/03/10 01:45:18;;;;;;;11.10;8.25;;;;;;;-2.11;67.10;98580.54;1765625;81;21393;-74
2021/03/10 01:47:48;;;;;;;7.95;7.12;;;;;;;-2.09;67.07;98586.67;1765604;81;21464;-74
2021/03/10 01:50:19;;;;;;;9.53;6.92;;;;;;;-2.09;67.02;98584.90;1765575;81;20934;-75
2021/03/10 01:52:47;;;;;;;7.20;5.67;;;;;;;-2.07;66.89;98579.61;1765604;81;21603;-74
2021/03/10 01:55:15;;;;;;;7.60;6.72;;;;;;;-2.05;67.01;98583.08;1743971;81;20992;-73
2021/03/10 01:57:45;;;;;;;11.00;8.08;;;;;;;-2.06;66.79;98580.05;1738639;82;21377;-73
2021/03/10 02:00:13;;;;;;;9.45;6.95;;;;;;;-2.03;66.84;98585.27;1738622;82;21655;-73
2021/03/10 02:02:42;;;;;;;7.62;6.80;;;;;;;-2.04;66.95;98587.00;1738591;82;20932;-73
2021/03/10 02:05:15;;;;;;;10.95;7.87;;;;;;;-2.03;66.83;98581.31;1738537;82;21183;-73
2021/03/10 02:08:03;;;;;;;14.30;11.83;;;;;;;-2.04;66.92;98579.11;1738737;82;20988;-73
2021/03/10 02:11:06;;;;;;;10.05;8.45;;;;;;;-2.01;66.90;98582.16;1738455;82;21203;-74
2021/03/10 02:14:07;;;;;;;7.72;6.92;;;;;;;-2.02;66.82;98571.19;1738718;82;21008;-73
2021/03/10 02:16:53;;;;;;;9.53;8.08;;;;;;;-2.01;66.81;98573.80;1738794;82;20992;-78
2021/03/10 02:19:52;;;;;;;10.58;7.00;;;;;;;-2.03;66.71;98570.78;1738783;82;20948;-74
2021/03/10 02:23:18;;;;;;;10.55;7.92;;;;;;;-2.05;66.98;98567.28;1738224;82;21497;-75
2021/03/10 02:26:33;;;;;;;11.33;8.43;;;;;;;-2.05;67.08;98564.66;1738611;82;21421;-73
2021/03/10 02:29:07;;;;;;;7.92;6.70;;;;;;;-2.04;66.92;98566.41;1738521;82;20976;-74
2021/03/10 02:31:40;;;;;;;9.38;7.62;;;;;;;-2.05;66.93;98564.66;1738694;82;21016;-74
2021/03/10 02:34:09;;;;;;;8.05;6.05;;;;;;;-2.03;66.97;98561.12;1738580;82;20928;-73
2021/03/10 02:36:41;;;;;;;7.80;7.10;;;;;;;-2.00;66.92;98565.48;1735781;82;20948;-73
2021/03/10 02:39:09;;;;;;;9.73;7.62;;;;;;;-1.98;66.78;98558.41;1738646;82;22072;-73
2021/03/10 02:41:38;;;;;;;7.75;6.83;;;;;;;-1.97;66.86;98565.42;1738441;81;20913;-73
2021/03/10 02:44:08;;;;;;;9.85;7.25;;;;;;;-1.96;66.86;98565.83;1715903;82;21480;-73
2021/03/10 02:46:37;;;;;;;8.03;6.85;;;;;;;-1.95;66.89;98562.77;1738574;82;20999;-75
2021/03/10 02:49:08;;;;;;;7.40;5.70;;;;;;;-1.95;66.91;98563.62;1714626;82;21043;-74
2021/03/10 02:51:36;;;;;;;9.05;6.05;;;;;;;-1.94;67.09;98568.02;1738420;82;21866;-74
2021/03/10 02:54:04;;;;;;;7.67;6.12;;;;;;;-1.94;66.90;98562.75;1741843;80;21113;-74
2021/03/10 02:56:32;;;;;;;7.67;6.87;;;;;;;-1.95;66.85;98559.68;1760203;81;20947;-74
2021/03/10 02:59:00;;;;;;;7.40;6.65;;;;;;;-1.93;66.89;98568.87;1764581;81;20935;-74
2021/03/10 03:01:30;;;;;;;8.65;7.10;;;;;;;-1.94;66.80;98565.38;1765472;81;20940;-75
2021/03/10 03:03:57;;;;;;;7.12;5.67;;;;;;;-1.92;67.10;98568.84;1765556;81;21835;-74
2021/03/10 03:06:25;;;;;;;7.97;6.45;;;;;;;-1.90;67.11;98565.73;1765485;81;20995;-74
2021/03/10 03:08:53;;;;;;;7.37;5.40;;;;;;;-1.88;67.06;98566.56;1766204;80;21042;-72
2021/03/10 03:11:20;;;;;;;9.00;7.95;;;;;;;-1.87;66.94;98559.09;1766664;81;21353;-72
2021/03/10 03:13:51;;;;;;;7.65;6.75;;;;;;;-1.87;67.16;98557.78;1766506;81;21341;-71
2021/03/10 03:16:18;;;;;;;7.85;6.40;;;;;;;-1.87;67.20;98561.73;1766184;81;21443;-74
2021/03/10 03:18:49;;;;;;;7.22;6.35;;;;;;;-1.86;67.29;98559.95;1765413;81;21018;-73
2021/03/10 03:21:17;;;;;;;7.22;6.20;;;;;;;-1.85;67.08;98559.94;1765577;81;21508;-73
2021/03/10 03:23:44;;;;;;;7.20;6.50;;;;;;;-1.84;67.09;98552.47;1765470;81;21018;-74
2021/03/10 03:26:17;;;;;;;9.63;6.78;;;;;;;-1.84;66.75;98551.15;1765495;81;20939;-74
2021/03/10 03:28:47;;;;;;;6.55;5.37;;;;;;;-1.84;66.28;98551.15;1765616;81;21135;-74
2021/03/10 03:31:15;;;;;;;6.20;5.60;;;;;;;-1.84;66.39;98545.88;1765458;81;21010;-75
2021/03/10 03:33:44;;;;;;;5.78;4.95;;;;;;;-1.85;66.46;98546.77;1765411;81;20987;-74
2021/03/10 03:36:14;;;;;;;5.22;4.50;;;;;;;-1.84;66.37;98548.52;1765585;81;20927;-74
2021/03/10 03:38:41;;;;;;;7.20;4.75;;;;;;;-1.83;66.35;98547.63;1765631;81;21490;-74
2021/03/10 03:41:09;;;;;;;10.48;7.45;;;;;;;-1.83;65.99;98547.63;1765475;80;21377;-74
2021/03/10 03:43:37;;;;;;;6.70;5.42;;;;;;;-1.85;66.05;98545.91;1765500;81;21504;-73
2021/03/10 03:46:05;;;;;;;5.80;4.20;;;;;;;-1.86;66.01;98550.31;1765523;81;20987;-75
2021/03/10 03:48:35;;;;;;;10.53;7.55;;;;;;;-1.88;65.94;98561.75;1765434;81;20998;-74
2021/03/10 03:51:24;;;;;;;6.70;5.83;;;;;;;-1.86;65.81;98552.95;1765600;81;21412;-75
2021/03/10 03:54:00;;;;;;;25.23;17.50;;;;;;;-1.85;65.80;98553.34;1765007;81;21775;-74
2021/03/10 03:56:33;;;;;;;9.50;7.62;;;;;;;-1.85;66.05;98556.44;1736691;82;20930;-74
2021/03/10 03:59:04;;;;;;;11.97;8.03;;;;;;;-1.85;66.11;98554.67;1736768;82;20997;-74
2021/03/10 04:01:35;;;;;;;5.83;5.22;;;;;;;-1.85;66.16;98548.55;1736443;81;21002;-74
2021/03/10 04:04:03;;;;;;;5.95;5.28;;;;;;;-1.87;66.01;98552.52;1736408;82;21249;-74
2021/03/10 04:06:31;;;;;;;4.85;4.42;;;;;;;-1.85;66.19;98551.17;1736429;81;21400;-74
2021/03/10 04:09:00;;;;;;;5.87;4.97;;;;;;;-1.87;66.01;98547.25;1736371;82;20955;-76
2021/03/10 04:11:46;;;;;;;;;;;;;;;-1.88;66.08;98549.45;1739109;82;21072;-74
2021/03/10 04:14:15;;;;;;;5.60;4.55;;;;;;;-1.87;66.32;98539.81;1736430;82;20251;-74
2021/03/10 04:16:45;;;;;;;4.60;4.20;;;;;;;-1.89;66.30;98540.27;1736664;81;20958;-74
2021/03/10 04:19:12;;;;;;;7.22;5.33;;;;;;;-1.87;66.32;98545.94;1736536;81;21151;-74
2021/03/10 04:21:41;;;;;;;5.83;4.97;;;;;;;-1.89;66.13;98545.10;1736547;82;21565;-74
2021/03/10 04:24:09;;;;;;;6.80;5.10;;;;;;;-1.84;66.08;98546.34;1736684;82;21378;-73
2021/03/10 04:26:37;;;;;;;5.55;4.60;;;;;;;-1.86;66.24;98541.10;1736552;81;20997;-75
2021/03/10 04:29:06;;;;;;;6.80;5.55;;;;;;;-1.86;66.00;98549.00;1736546;81;21443;-74
2021/03/10 04:31:34;;;;;;;7.12;4.97;;;;;;;-1.83;66.16;98539.73;1736544;81;21377;-74
2021/03/10 04:34:01;;;;;;;5.00;4.40;;;;;;;-1.83;66.36;98546.31;1736512;81;20942;-75
2021/03/10 04:36:30;;;;;;;5.08;4.47;;;;;;;-1.83;66.22;98545.00;1736629;82;20982;-74
2021/03/10 04:38:58;;;;;;;7.67;5.70;;;;;;;-1.82;66.17;98547.17;1736617;82;20942;-75
2021/03/10 04:41:25;;;;;;;6.37;4.92;;;;;;;-1.80;66.41;98543.20;1736539;82;20989;-74
2021/03/10 04:43:53;;;;;;;13.25;4.47;;;;;;;-1.82;66.27;98551.13;1736569;82;21320;-74
2021/03/10 04:46:22;;;;;;;9.25;7.55;;;;;;;-1.84;66.20;98540.62;1736583;82;20945;-77
2021/03/10 04:48:49;;;;;;;11.33;7.17;;;;;;;-1.86;66.04;98546.37;1736659;81;20950;-75
2021/03/10 04:51:18;;;;;;;7.80;5.95;;;;;;;-1.85;66.07;98538.87;1736998;82;20930;-76
2021/03/10 04:53:45;;;;;;;8.63;7.03;;;;;;;-1.84;66.05;98537.98;1737068;82;21005;-77
2021/03/10 04:56:13;;;;;;;8.50;6.45;;;;;;;-1.83;66.25;98534.47;1738658;82;22598;-75
2021/03/10 04:58:44;;;;;;;9.85;5.33;;;;;;;-1.83;66.36;98533.58;1738605;82;20996;-75
2021/03/10 05:01:12;;;;;;;11.12;6.85;;;;;;;-1.83;66.30;98539.73;1738647;82;20960;-75
2021/03/10 05:03:41;;;;;;;7.37;5.97;;;;;;;-1.84;66.26;98534.49;1738564;82;20944;-75
2021/03/10 05:06:13;;;;;;;6.08;5.45;;;;;;;-1.85;66.25;98536.23;1738665;82;20916;-74
2021/03/10 05:08:43;;;;;;;8.80;5.30;;;;;;;-1.89;66.27;98535.89;1737033;82;21673;-73
2021/03/10 05:11:14;;;;;;;7.20;5.33;;;;;;;-1.88;66.67;98538.92;1738573;82;21024;-75
2021/03/10 05:13:43;;;;;;;11.20;7.95;;;;;;;-1.85;66.73;98536.23;1738591;82;20988;-74
2021/03/10 05:16:11;;;;;;;8.25;7.35;;;;;;;-1.84;66.66;98531.86;1738602;82;20940;-75
2021/03/10 05:18:43;;;;;;;7.20;6.50;;;;;;;-1.83;66.58;98541.05;1738699;82;20936;-74
2021/03/10 05:21:11;;;;;;;8.08;6.55;;;;;;;-1.79;66.78;98534.42;1738635;82;21815;-75
2021/03/10 05:23:42;;;;;;;8.40;5.87;;;;;;;-1.79;66.56;98537.05;1738671;81;21363;-74
2021/03/10 05:26:13;;;;;;;9.68;5.83;;;;;;;-1.79;66.79;98538.36;1738646;82;21497;-75
2021/03/10 05:28:41;;;;;;;8.30;5.87;;;;;;;-1.79;66.82;98537.91;1738605;82;20920;-75
2021/03/10 05:31:10;;;;;;;11.65;6.22;;;;;;;-1.80;66.53;98536.62;1738799;82;20948;-75
2021/03/10 05:33:41;;;;;;;5.97;5.30;;;;;;;-1.78;66.66;98538.77;1738633;82;21215;-74
2021/03/10 05:36:13;;;;;;;8.88;5.58;;;;;;;-1.79;66.72;98536.59;1738600;82;20948;-75
2021/03/10 05:38:49;;;;;;;6.25;4.90;;;;;;;-1.75;66.78;98534.77;1738589;82;20956;-76
2021/03/10 05:41:21;;;;;;;7.42;5.33;;;;;;;-1.75;67.00;98538.72;1738628;82;20897;-76
2021/03/10 05:43:52;;;;;;;25.08;6.72;;;;;;;-1.76;66.99;98541.80;1716016;82;20889;-75
2021/03/10 05:46:20;;;;;;;17.90;6.50;;;;;;;-1.75;66.94;98541.34;1738642;82;21895;-75
2021/03/10 05:48:48;;;;;;;9.00;6.92;;;;;;;-1.75;67.04;98545.30;1738523;82;20917;-75
2021/03/10 05:51:19;;;;;;;12.78;7.22;;;;;;;-1.74;67.16;98540.46;1738641;82;20992;-75
2021/03/10 05:53:47;;;;;;;9.30;6.80;;;;;;;-1.72;67.24;98541.30;1738525;82;21027;-76
2021/03/10 05:56:16;;;;;;;19.27;8.10;;;;;;;-1.71;67.22;98544.36;1738584;82;20996;-75
2021/03/10 05:59:05;;;;;;;10.28;8.00;;;;;;;-1.66;67.25;98549.09;1738637;82;21838;-75
2021/03/10 06:01:33;;;;;;;14.33;9.90;;;;;;;-1.62;67.28;98552.53;1738587;82;20960;-75
2021/03/10 06:04:05;;;;;;;30.85;8.85;;;;;;;-1.62;66.92;98557.37;1716325;82;20999;-75
2021/03/10 06:06:38;;;;;;;14.23;10.08;;;;;;;-1.59;67.22;98552.05;1716004;82;20995;-76
2021/03/10 06:09:18;;;;;;;36.70;16.48;;;;;;;-1.59;67.05;98556.00;1738702;82;21457;-77
2021/03/10 06:11:59;;;;;;;12.68;10.68;;;;;;;-1.57;67.17;98554.20;1738679;82;21372;-76
2021/03/10 06:14:33;;;;;;;10.70;8.23;;;;;;;-1.58;67.23;98561.66;1729711;82;21015;-78
2021/03/10 06:17:09;;;;;;;10.75;8.00;;;;;;;-1.57;67.14;98567.37;1738784;82;20933;-78
2021/03/10 06:19:48;;;;;;;13.83;8.63;;;;;;;-1.58;67.28;98565.62;1738397;82;20960;-76
2021/03/10 06:22:20;;;;;;;18.62;13.93;;;;;;;-1.55;67.46;98569.52;1738060;82;20940;-76
2021/03/10 06:25:00;;;;;;;16.12;10.75;;;;;;;-1.52;67.52;98575.19;1738784;82;22685;-75
2021/03/10 06:27:31;;;;;;;15.70;9.15;;;;;;;-1.50;67.60;98581.30;1691965;83;20967;-77
2021/03/10 06:30:00;;;;;;;12.03;9.08;;;;;;;-1.50;67.65;98582.19;1726429;82;20980;-74
2021/03/10 06:32:28;;;;;;;18.37;9.48;;;;;;;-1.47;67.71;98585.19;1738541;82;20956;-74
2021/03/10 06:34:59;;;;;;;19.65;8.30;;;;;;;-1.47;67.70;98586.08;1738694;82;20897;-74
2021/03/10 06:37:29;;;;;;;10.30;8.58;;;;;;;-1.43;67.44;98588.20;1738693;82;21062;-78
2021/03/10 06:40:11;;;;;;;11.45;7.47;;;;;;;-1.42;67.67;98591.70;1738608;82;20956;-75
2021/03/10 06:42:54;;;;;;;12.58;8.33;;;;;;;-1.41;67.58;98596.08;1738527;82;20901;-74
2021/03/10 06:45:33;;;;;;;13.30;8.13;;;;;;;-1.40;67.60;98596.05;1738632;82;21378;-73
2021/03/10 06:48:03;;;;;;;11.33;7.70;;;;;;;-1.37;67.50;98597.75;1738727;82;20940;-76
2021/03/10 06:50:38;;;;;;;11.95;8.58;;;;;;;-1.37;67.40;98596.00;1738775;81;21417;-75
2021/03/10 06:53:07;;;;;;;9.98;7.95;;;;;;;-1.37;67.38;98593.79;1738274;81;21457;-66
2021/03/10 06:55:44;;;;;;;12.70;8.03;;;;;;;-1.36;67.42;98592.91;1766172;80;21003;-75
2021/03/10 06:58:24;;;;;;;13.22;8.63;;;;;;;-1.35;67.59;98593.34;1758535;80;21047;-73
2021/03/10 07:01:03;;;;;;;30.08;16.67;;;;;;;-1.33;67.65;98600.76;1756741;80;21019;-73
2021/03/10 07:03:35;;;;;;;15.80;7.87;;;;;;;-1.30;67.36;98594.97;1762812;81;22293;-73
2021/03/10 07:06:06;;;;;;;12.15;8.50;;;;;;;-1.30;67.49;98595.43;1762372;81;21015;-75
2021/03/10 07:08:41;;;;;;;11.80;9.13;;;;;;;-1.28;67.46;98600.22;1763160;81;20963;-73
2021/03/10 07:11:14;;;;;;;9.23;7.80;;;;;;;-1.25;67.55;98599.30;1763129;81;20948;-76
2021/03/10 07:13:46;;;;;;;8.48;7.45;;;;;;;-1.24;67.35;98607.18;1758665;81;20987;-72
2021/03/10 07:16:17;;;;;;;14.63;9.83;;;;;;;-1.22;67.37;98609.33;1754946;81;20992;-73
2021/03/10 07:18:50;;;;;;;10.85;8.53;;;;;;;-1.21;67.69;98604.95;1755035;81;20963;-77
2021/03/10 07:21:26;;;;;;;12.68;10.55;;;;;;;-1.21;67.23;98616.35;1755077;81;21003;-75
2021/03/10 07:23:54;;;;;;;83.30;40.85;;;;;;;-1.16;67.34;98613.17;1750359;81;21030;-74
2021/03/10 07:26:21;;;;;;;79.50;40.67;;;;;;;-1.14;67.31;98608.73;1754694;80;20943;-75
2021/03/10 07:28:54;;;;;;;126.47;67.30;;;;;;;-1.12;67.38;98609.59;1784711;80;21809;-76
2021/03/10 07:31:25;;;;;;;41.50;27.52;;;;;;;-1.11;67.34;98611.31;1784563;80;20904;-73
2021/03/10 07:33:56;;;;;;;101.15;64.97;;;;;;;-1.11;67.29;98606.04;1784902;80;26831;-73
2021/03/10 07:36:40;;;;;;;36.30;18.98;;;;;;;-1.08;67.23;98610.39;1784567;80;21032;-74
2021/03/10 07:39:25;;;;;;;56.28;29.80;;;;;;;-1.06;67.47;98615.64;1721318;83;20995;-75
2021/03/10 07:42:17;;;;;;;17.25;11.73;;;;;;;-1.04;67.53;98615.15;1721466;83;21449;-73
2021/03/10 07:44:55;;;;;;;10.35;9.35;;;;;;;-1.02;67.48;98615.55;1721397;83;20991;-73
2021/03/10 07:47:24;;;;;;;12.23;10.65;;;;;;;-1.00;67.12;98611.57;1721246;83;21034;-73
2021/03/10 07:49:59;;;;;;;11.97;7.45;;;;;;;-0.95;67.09;98609.24;1751439;80;21603;-76
2021/03/10 07:52:31;;;;;;;16.35;9.73;;;;;;;-0.93;66.98;98610.53;1785096;80;21357;-80
2021/03/10 07:55:00;;;;;;;11.93;8.85;;;;;;;-0.90;67.01;98609.16;1784972;80;21500;-74
2021/03/10 07:57:31;;;;;;;13.40;8.05;;;;;;;-0.86;67.06;98608.20;1784815;80;20940;-74
2021/03/10 08:00:09;;;;;;;15.08;12.07;;;;;;;-0.83;66.95;98613.88;1784521;80;33620;-74
2021/03/10 08:02:48;;;;;;;11.70;7.90;;;;;;;-0.81;66.53;98608.98;1737586;79;20948;-74
2021/03/10 08:05:23;;;;;;;9.80;8.20;;;;;;;-0.81;66.52;98608.12;1723569;83;21015;-74
2021/03/10 08:08:14;;;;;;;11.20;8.50;;;;;;;-0.81;66.43;98608.98;1723507;83;22375;-75
2021/03/10 08:10:45;;;;;;;16.20;10.75;;;;;;;-0.78;66.44;98613.33;1720749;83;21031;-78
2021/03/10 08:13:19;;;;;;;10.25;9.05;;;;;;;-0.77;66.27;98613.30;1729388;80;21529;-75
2021/03/10 08:15:48;;;;;;;15.95;10.50;;;;;;;-0.75;66.41;98607.54;1764303;81;20944;-75
2021/03/10 08:18:21;;;;;;;15.68;11.08;;;;;;;-0.70;66.54;98619.77;1763847;81;20979;-74
2021/03/10 08:20:50;;;;;;;56.73;33.95;;;;;;;-0.70;66.49;98614.50;1763534;81;21383;-76
2021/03/10 08:23:19;;;;;;;24.57;17.82;;;;;;;-0.69;66.53;98609.62;1763245;81;21496;-74
2021/03/10 08:25:51;;;;;;;22.05;14.95;;;;;;;-0.68;66.35;98616.19;1763381;80;21499;-80
2021/03/10 08:28:22;;;;;;;12.65;10.70;;;;;;;-0.67;66.25;98615.76;1763321;81;20944;-76
2021/03/10 08:30:50;;;;;;;43.23;28.00;;;;;;;-0.64;65.98;98615.70;1763427;81;20936;-76
2021/03/10 08:33:18;;;;;;;132.00;73.60;;;;;;;-0.61;66.07;98623.55;1731351;81;21181;-75
2021/03/10 08:35:49;;;;;;;34.83;21.85;;;;;;;-0.58;65.78;98628.77;1763305;81;21011;-78
2021/03/10 08:38:19;;;;;;;15.05;13.45;;;;;;;-0.55;67.01;98624.28;1744076;80;21557;-68
2021/03/10 08:40:51;;;;;;;10.50;9.43;;;;;;;-0.52;66.13;98627.75;1723421;83;20944;-78
2021/03/10 08:43:20;;;;;;;13.53;10.88;;;;;;;-0.49;65.74;98632.53;1723421;80;20940;-79
2021/03/10 08:45:50;;;;;;;18.32;15.80;;;;;;;-0.47;65.59;98634.68;1723471;83;21202;-78
2021/03/10 08:48:18;;;;;;;12.95;10.75;;;;;;;-0.47;65.45;98630.72;1678209;83;20991;-79
2021/03/10 08:50:46;;;;;;;53.40;30.10;;;;;;;-0.45;65.45;98631.55;1723386;83;21015;-81
2021/03/10 08:53:17;;;;;;;87.00;53.68;;;;;;;-0.42;65.46;98629.30;1723409;83;20991;-79
2021/03/10 08:55:49;;;;;;;94.70;59.23;;;;;;;-0.39;65.38;98624.82;1723166;82;20948;-79
2021/03/10 08:58:19;;;;;;;34.03;26.48;;;;;;;-0.37;65.51;98630.92;1723399;83;21385;-79
2021/03/10 09:00:48;;;;;;;17.23;15.40;;;;;;;-0.35;65.54;98628.72;1723478;83;21440;-78
2021/03/10 09:03:20;;;;;;;17.90;14.95;;;;;;;-0.34;65.46;98631.78;1723517;81;21004;-78
2021/03/10 09:05:53;;;;;;;12.85;11.55;;;;;;;-0.34;65.32;98629.14;1723906;82;21405;-78
2021/03/10 09:08:23;;;;;;;11.95;10.13;;;;;;;-0.34;65.48;98630.47;1678911;83;21070;-79
2021/03/10 09:11:00;;;;;;;13.28;10.75;;;;;;;-0.35;65.38;98627.40;1723984;82;22515;-78
2021/03/10 09:13:46;;;;;;;13.55;11.48;;;;;;;-0.35;65.05;98632.67;1724316;83;21023;-79
2021/03/10 09:16:19;;;;;;;32.33;23.77;;;;;;;-0.33;64.98;98630.86;1724060;82;20964;-78
2021/03/10 09:19:01;;;;;;;14.35;12.40;;;;;;;-0.31;64.72;98639.64;1723529;82;20951;-79
2021/03/10 09:21:43;;;;;;;105.80;51.80;;;;;;;-0.30;64.85;98631.69;1723503;82;21074;-78
2021/03/10 09:24:13;;;;;;;15.35;12.60;;;;;;;-0.28;65.07;98639.58;1723524;82;21804;-77
2021/03/10 09:26:44;;;;;;;15.00;11.88;;;;;;;-0.26;65.04;98635.12;1723394;82;21064;-78
2021/03/10 09:29:12;;;;;;;16.17;11.65;;;;;;;-0.25;64.72;98638.19;1723683;83;21501;-78
2021/03/10 09:31:54;;;;;;;16.73;11.40;;;;;;;-0.24;64.46;98646.04;1723529;80;21378;-78
2021/03/10 09:34:26;;;;;;;18.07;15.90;;;;;;;-0.22;64.42;98646.90;1723688;83;23924;-80
2021/03/10 09:36:55;;;;;;;15.00;12.03;;;;;;;-0.22;64.69;98643.37;1723925;83;21354;-80
2021/03/10 09:39:28;;;;;;;14.80;13.25;;;;;;;-0.23;64.30;98642.52;1723704;82;20956;-79
2021/03/10 09:42:06;;;;;;;19.45;15.10;;;;;;;-0.21;64.53;98638.52;1721531;83;21334;-79
2021/03/10 09:44:43;;;;;;;18.00;14.33;;;;;;;-0.20;64.60;98637.16;1723421;83;21531;-80
2021/03/10 09:47:24;;;;;;;17.52;15.30;;;;;;;-0.18;64.74;98638.45;1723685;83;21342;-80
2021/03/10 09:49:58;;;;;;;15.65;13.75;;;;;;;-0.15;64.45;98644.98;1723981;83;21472;-79
2021/03/10 09:52:37;;;;;;;25.60;16.80;;;;;;;-0.13;64.60;98641.85;1723621;82;20988;-79
2021/03/10 09:55:11;;;;;;;14.58;12.05;;;;;;;-0.09;64.64;98643.53;1723941;83;20971;-79
2021/03/10 09:57:40;;;;;;;16.37;14.87;;;;;;;-0.08;64.28;98643.95;1712293;82;21489;-79
2021/03/10 10:00:21;;;;;;;15.25;11.90;;;;;;;-0.06;64.38;98650.06;1708030;84;21361;-77
2021/03/10 10:02:55;;;;;;;14.35;12.85;;;;;;;-0.04;64.14;98650.89;1707700;84;21876;-80
2021/03/10 10:05:30;;;;;;;16.05;12.60;;;;;;;-0.04;64.02;98646.07;1707853;84;21008;-79
2021/03/10 10:08:00;;;;;;;14.73;12.33;;;;;;;-0.05;64.00;98650.49;1707678;84;20949;-78
2021/03/10 10:10:32;;;;;;;16.10;13.35;;;;;;;-0.05;64.19;98657.09;1707610;84;20944;-79
2021/03/10 10:13:03;;;;;;;15.70;12.18;;;;;;;-0.07;63.89;98664.16;1707741;82;20960;-78
2021/03/10 10:15:33;;;;;;;14.58;12.93;;;;;;;-0.07;64.16;98659.34;1707883;84;22276;-78
2021/03/10 10:18:05;;;;;;;14.63;10.80;;;;;;;-0.08;64.26;98662.45;1707836;84;21040;-80
2021/03/10 10:20:34;;;;;;;17.23;14.18;;;;;;;-0.10;64.22;98665.55;1686122;84;20952;-80
2021/03/10 10:23:05;;;;;;;14.53;13.00;;;;;;;-0.14;64.14;98669.17;1707529;84;21031;-79
2021/03/10 10:25:35;;;;;;;18.55;15.18;;;;;;;-0.18;64.13;98670.13;1707628;84;21027;-79
2021/03/10 10:28:05;;;;;;;16.90;13.53;;;;;;;-0.18;64.17;98666.17;1707644;84;21383;-78
2021/03/10 10:30:36;;;;;;;15.68;13.03;;;;;;;-0.19;64.29;98665.74;1707391;84;21032;-82
2021/03/10 10:33:07;;;;;;;20.97;13.00;;;;;;;-0.20;64.31;98671.95;1707479;84;21020;-79
2021/03/10 10:35:39;;;;;;;28.38;17.67;;;;;;;-0.17;64.19;98674.52;1707616;84;20961;-80
2021/03/10 10:38:10;;;;;;;25.57;17.95;;;;;;;-0.14;64.29;98666.53;1707810;84;21579;-79
2021/03/10 10:40:38;;;;;;;21.93;16.93;;;;;;;-0.11;64.30;98674.39;1707601;84;21355;-82
2021/03/10 10:43:09;;;;;;;20.48;13.70;;;;;;;-0.09;64.38;98676.54;1707465;83;20952;-79
2021/03/10 10:45:37;;;;;;;27.07;19.07;;;;;;;-0.06;64.28;98675.61;1707666;84;21037;-76
2021/03/10 10:48:09;;;;;;;66.33;35.55;;;;;;;-0.05;64.00;98674.27;1707543;84;21029;-80
2021/03/10 10:50:52;;;;;;;31.82;20.35;;;;;;;-0.02;64.14;98672.88;1685065;84;20905;-77
2021/03/10 10:53:24;;;;;;;16.45;14.20;;;;;;;0.02;64.16;98676.73;1707597;84;22556;-78
2021/03/10 10:55:52;;;;;;;39.35;27.50;;;;;;;0.04;63.77;98677.59;1707603;84;20948;-77
2021/03/10 10:58:21;;;;;;;15.80;13.85;;;;;;;0.06;63.82;98678.42;1708033;83;20933;-81
2021/03/10 11:00:51;;;;;;;15.85;14.23;;;;;;;0.08;63.72;98684.52;1708151;84;20978;-79
2021/03/10 11:03:23;;;;;;;31.07;19.32;;;;;;;0.10;63.83;98677.45;1707571;84;20992;-79
2021/03/10 11:05:52;;;;;;;17.60;14.47;;;;;;;0.11;64.01;98676.53;1707630;84;21502;-81
2021/03/10 11:08:24;;;;;;;18.17;16.27;;;;;;;0.11;63.45;98685.78;1707554;84;21604;-77
2021/03/10 11:10:55;;;;;;;50.88;33.13;;;;;;;0.13;63.43;98681.35;1707617;84;21048;-76
2021/03/10 11:13:25;;;;;;;26.15;17.85;;;;;;;0.14;63.69;98681.31;1705786;84;21594;-78
2021/03/10 11:15:58;;;;;;;19.17;15.68;;;;;;;0.14;63.23;98676.03;1707393;84;21024;-80
2021/03/10 11:18:34;;;;;;;17.90;15.93;;;;;;;0.14;63.06;98673.82;1707299;84;21831;-78
2021/03/10 11:21:02;;;;;;;25.72;19.15;;;;;;;0.13;63.27;98672.11;1707620;84;21517;-78
2021/03/10 11:23:33;;;;;;;23.42;19.70;;;;;;;0.13;63.01;98674.75;1707483;84;20952;-81
2021/03/10 11:26:01;;;;;;;31.45;21.42;;;;;;;0.13;63.12;98673.42;1707572;84;20925;-80
2021/03/10 11:28:33;;;;;;;22.37;17.48;;;;;;;0.17;63.44;98676.39;1707557;84;20940;-79
2021/03/10 11:31:03;;;;;;;20.30;17.55;;;;;;;0.20;63.17;98672.83;1707589;84;22073;-79
2021/03/10 11:33:34;;;;;;;21.27;14.98;;;;;;;0.24;63.11;98680.64;1707500;84;20976;-80
2021/03/10 11:36:08;;;;;;;18.85;15.83;;;;;;;0.24;62.96;98662.16;1707555;84;21060;-80
2021/03/10 11:38:39;;;;;;;20.70;16.37;;;;;;;0.29;62.75;98668.19;1707551;84;20957;-80
2021/03/10 11:41:09;;;;;;;21.40;16.40;;;;;;;0.30;62.75;98663.34;1707615;84;20965;-79
2021/03/10 11:43:39;;;;;;;19.57;15.98;;;;;;;0.34;62.80;98663.66;1705350;84;21215;-81
2021/03/10 11:46:09;;;;;;;24.18;14.93;;;;;;;0.35;62.72;98670.69;1707154;84;21593;-83